createdAt,value
2023-04-02T00:00:10.559Z,5.51
2023-04-02T00:02:57.728Z,5.45
2023-04-02T00:05:34.610Z,5.48
2023-04-02T00:08:19.002Z,5.49
2023-04-02T00:11:02.719Z,5.44
2023-04-02T00:13:33.172Z,5.53
2023-04-02T00:16:04.052Z,5.52
2023-04-02T00:18:32.933Z,5.50
2023-04-02T00:21:28.454Z,5.52
2023-04-02T00:23:58.523Z,5.54
2023-04-02T00:26:41.140Z,5.54
2023-04-02T00:29:13.487Z,5.51
2023-04-02T00:31:48.377Z,5.55
2023-04-02T00:34:24.018Z,5.46
2023-04-02T00:36:52.857Z,5.40
2023-04-02T00:39:28.259Z,5.40
2023-04-02T00:42:05.628Z,5.39
2023-04-02T00:44:42.964Z,5.46
2023-04-02T00:47:34.262Z,5.40
2023-04-02T00:50:21.020Z,5.38
2023-04-02T00:52:52.523Z,5.45
2023-04-02T00:55:36.612Z,5.51
2023-04-02T00:58:05.726Z,5.48
2023-04-02T01:00:38.017Z,5.45
2023-04-02T01:03:18.463Z,5.37
2023-04-02T01:06:02.764Z,5.35
2023-04-02T01:09:08.484Z,5.26
2023-04-02T01:12:20.717Z,5.31
2023-04-02T01:15:22.028Z,5.21
2023-04-02T01:18:14.131Z,5.22
2023-04-02T01:21:03.361Z,5.24
2023-04-02T01:23:37.170Z,5.20
2023-04-02T01:26:24.706Z,5.05
2023-04-02T01:29:20.428Z,5.04
2023-04-02T01:31:50.850Z,5.00
2023-04-02T01:34:25.252Z,4.96
2023-04-02T01:37:37.803Z,4.91
2023-04-02T01:40:59.931Z,4.93
2023-04-02T01:43:31.047Z,4.81
2023-04-02T01:46:00.356Z,4.69
2023-04-02T01:48:32.928Z,4.78
2023-04-02T01:51:05.467Z,4.72
2023-04-02T01:53:34.083Z,4.64
2023-04-02T01:56:04.931Z,4.65
2023-04-02T01:58:34.470Z,4.53
2023-04-02T02:01:19.971Z,4.50
2023-04-02T02:03:48.799Z,4.55
2023-04-02T02:06:19.125Z,4.56
2023-04-02T02:09:06.535Z,4.50
2023-04-02T02:11:36.604Z,4.48
2023-04-02T02:14:21.111Z,4.44
2023-04-02T02:16:50.006Z,4.58
2023-04-02T02:19:36.992Z,4.54
2023-04-02T02:22:27.802Z,4.53
2023-04-02T02:25:00.296Z,4.58
2023-04-02T02:27:28.781Z,4.55
2023-04-02T02:30:12.856Z,4.54
2023-04-02T02:33:23.500Z,4.47
2023-04-02T02:36:04.836Z,4.46
2023-04-02T02:38:36.052Z,4.57
2023-04-02T02:41:22.720Z,4.59
2023-04-02T02:44:05.776Z,4.57
2023-04-02T02:46:36.166Z,4.51
2023-04-02T02:49:06.113Z,4.57
2023-04-02T02:52:11.600Z,4.53
2023-04-02T02:54:46.323Z,4.46
2023-04-02T02:57:22.088Z,4.37
2023-04-02T02:59:52.370Z,4.26
2023-04-02T03:02:22.013Z,4.28
2023-04-02T03:04:53.908Z,4.17
2023-04-02T03:07:27.820Z,4.15
2023-04-02T03:10:16.812Z,4.21
2023-04-02T03:13:19.869Z,4.12
2023-04-02T03:16:00.353Z,4.17
2023-04-02T03:18:43.828Z,4.04
2023-04-02T03:21:28.010Z,4.10
2023-04-02T03:24:03.003Z,4.09
2023-04-02T03:27:00.655Z,4.05
2023-04-02T03:29:33.457Z,4.16
2023-04-02T03:32:12.003Z,4.11
2023-04-02T03:34:51.412Z,4.05
2023-04-02T03:37:25.847Z,3.98
2023-04-02T03:40:17.071Z,4.03
2023-04-02T03:42:56.636Z,4.07
2023-04-02T03:45:34.428Z,4.05
2023-04-02T03:48:13.006Z,3.97
2023-04-02T03:51:19.534Z,3.95
2023-04-02T03:53:49.385Z,3.98
2023-04-02T03:56:34.181Z,3.95
2023-04-02T03:59:40.079Z,3.92
2023-04-02T04:02:35.777Z,3.93
2023-04-02T04:05:06.868Z,3.84
2023-04-02T04:07:40.543Z,3.74
2023-04-02T04:10:11.447Z,3.79
2023-04-02T04:12:49.323Z,3.74
2023-04-02T04:15:41.249Z,3.67
2023-04-02T04:18:34.750Z,3.66
2023-04-02T04:21:30.971Z,3.73
2023-04-02T04:24:04.918Z,3.60
2023-04-02T04:26:58.015Z,3.65
2023-04-02T04:29:28.785Z,3.62
2023-04-02T04:31:58.966Z,3.75
2023-04-02T04:34:42.370Z,3.76
2023-04-02T04:37:26.341Z,3.75
2023-04-02T04:40:07.635Z,3.74
2023-04-02T04:42:39.465Z,3.73
2023-04-02T04:45:32.999Z,3.75
2023-04-02T04:48:20.877Z,3.73
2023-04-02T04:51:00.770Z,3.73
2023-04-02T04:53:31.804Z,3.71
2023-04-02T04:56:18.626Z,3.74
2023-04-02T04:59:07.360Z,3.74
2023-04-02T05:01:39.677Z,3.69
2023-04-02T05:04:33.775Z,3.66
2023-04-02T05:07:12.483Z,3.61
2023-04-02T05:10:04.844Z,3.68
2023-04-02T05:13:15.795Z,3.67
2023-04-02T05:16:15.776Z,3.69
2023-04-02T05:18:58.175Z,3.65
2023-04-02T05:21:50.463Z,3.69
2023-04-02T05:24:38.993Z,3.68
2023-04-02T05:27:24.999Z,3.65
2023-04-02T05:30:04.828Z,3.63
2023-04-02T05:32:44.523Z,3.61
2023-04-02T05:35:22.061Z,3.57
2023-04-02T05:37:50.738Z,3.65
2023-04-02T05:40:31.099Z,3.68
2023-04-02T05:43:05.106Z,3.66
2023-04-02T05:45:40.478Z,3.64
2023-04-02T05:48:36.657Z,3.61
2023-04-02T05:51:09.844Z,3.51
2023-04-02T05:54:02.807Z,3.63
2023-04-02T05:56:47.382Z,3.67
2023-04-02T05:59:43.281Z,3.68
2023-04-02T06:02:31.066Z,3.71
2023-04-02T06:05:28.125Z,3.72
2023-04-02T06:08:08.697Z,3.79
2023-04-02T06:11:06.996Z,3.85
2023-04-02T06:13:35.881Z,3.83
2023-04-02T06:16:05.082Z,3.86
2023-04-02T06:18:37.125Z,3.85
2023-04-02T06:21:06.677Z,3.84
2023-04-02T06:23:44.795Z,3.92
2023-04-02T06:26:31.534Z,3.94
2023-04-02T06:29:19.169Z,3.92
2023-04-02T06:32:01.206Z,3.92
2023-04-02T06:34:31.744Z,3.90
2023-04-02T06:37:28.795Z,3.93
2023-04-02T06:39:59.094Z,3.93
2023-04-02T06:42:48.367Z,3.96
2023-04-02T06:45:27.804Z,3.89
2023-04-02T06:47:58.649Z,3.95
2023-04-02T06:50:57.096Z,3.99
2023-04-02T06:53:51.622Z,4.00
2023-04-02T06:56:47.841Z,3.91
2023-04-02T06:59:17.029Z,3.90
2023-04-02T07:01:50.941Z,3.91
2023-04-02T07:04:22.051Z,3.86
2023-04-02T07:06:51.241Z,3.87
2023-04-02T07:09:19.870Z,3.80
2023-04-02T07:11:48.390Z,3.80
2023-04-02T07:14:17.055Z,3.86
2023-04-02T07:16:46.006Z,3.85
2023-04-02T07:19:22.098Z,3.98
2023-04-02T07:21:51.079Z,4.10
2023-04-02T07:24:19.611Z,4.05
2023-04-02T07:26:48.330Z,4.10
2023-04-02T07:29:19.947Z,4.10
2023-04-02T07:31:48.516Z,4.15
2023-04-02T07:34:17.130Z,4.19
2023-04-02T07:36:45.703Z,4.14
2023-04-02T07:39:14.249Z,4.16
2023-04-02T07:42:03.045Z,4.25
2023-04-02T07:44:32.135Z,4.14
2023-04-02T07:47:00.805Z,4.12
2023-04-02T07:49:29.443Z,4.05
2023-04-02T07:51:57.942Z,4.07
2023-04-02T07:54:27.273Z,4.09
2023-04-02T07:56:55.831Z,4.14
2023-04-02T07:59:24.444Z,4.04
2023-04-02T08:01:54.523Z,4.01
2023-04-02T08:04:24.215Z,4.03
2023-04-02T08:06:52.944Z,4.02
2023-04-02T08:09:21.453Z,4.06
2023-04-02T08:11:50.116Z,3.99
2023-04-02T08:14:18.692Z,4.10
2023-04-02T08:16:56.602Z,4.07
2023-04-02T08:19:25.312Z,4.03
2023-04-02T08:21:56.696Z,3.98
2023-04-02T08:24:25.574Z,4.02
2023-04-02T08:26:54.675Z,4.07
2023-04-02T08:29:23.423Z,3.96
2023-04-02T08:31:51.888Z,4.05
2023-04-02T08:34:23.297Z,4.03
2023-04-02T08:37:01.155Z,3.93
2023-04-02T08:39:33.162Z,3.97
2023-04-02T08:42:05.994Z,3.91
2023-04-02T08:45:21.174Z,4.05
2023-04-02T08:47:57.593Z,4.20
2023-04-02T08:50:37.502Z,4.17
2023-04-02T08:53:26.990Z,4.17
2023-04-02T08:56:18.996Z,4.16
2023-04-02T08:58:56.477Z,4.15
2023-04-02T09:02:03.731Z,4.23
2023-04-02T09:04:34.401Z,4.28
2023-04-02T09:07:08.382Z,4.28
2023-04-02T09:09:44.057Z,4.35
2023-04-02T09:12:37.275Z,4.43
2023-04-02T09:15:30.617Z,4.48
2023-04-02T09:18:19.967Z,4.58
2023-04-02T09:20:49.963Z,4.58
2023-04-02T09:23:26.163Z,4.65
2023-04-02T09:26:04.218Z,4.67
2023-04-02T09:28:36.176Z,4.71
2023-04-02T09:31:37.772Z,4.66
2023-04-02T09:34:35.206Z,4.74
2023-04-02T09:37:31.286Z,4.76
2023-04-02T09:40:18.602Z,4.82
2023-04-02T09:42:47.877Z,4.69
2023-04-02T09:45:23.086Z,4.75
2023-04-02T09:47:52.974Z,4.68
2023-04-02T09:50:29.001Z,4.69
2023-04-02T09:52:57.772Z,4.78
2023-04-02T09:55:31.336Z,4.86
2023-04-02T09:58:18.910Z,4.98
2023-04-02T10:01:08.480Z,5.00
2023-04-02T10:03:37.186Z,5.11
2023-04-02T10:06:14.898Z,4.97
2023-04-02T10:08:46.271Z,5.02
2023-04-02T10:11:43.753Z,5.01
2023-04-02T10:14:25.736Z,5.12
2023-04-02T10:17:11.548Z,5.15
2023-04-02T10:19:45.393Z,5.16
2023-04-02T10:22:20.050Z,5.26
2023-04-02T10:24:48.874Z,5.16
2023-04-02T10:27:31.994Z,5.23
2023-04-02T10:30:15.029Z,5.14
2023-04-02T10:33:02.443Z,5.24
2023-04-02T10:35:55.189Z,5.31
2023-04-02T10:38:26.460Z,5.26
2023-04-02T10:41:21.389Z,5.27
2023-04-02T10:44:12.781Z,5.06
2023-04-02T10:47:05.097Z,5.33
2023-04-02T10:49:43.910Z,5.24
2023-04-02T10:52:32.882Z,5.24
2023-04-02T10:55:19.533Z,5.35
2023-04-02T10:57:51.633Z,5.49
2023-04-02T11:00:30.276Z,5.61
2023-04-02T11:03:10.493Z,5.65
2023-04-02T11:05:53.092Z,5.75
2023-04-02T11:08:24.240Z,5.70
2023-04-02T11:11:08.102Z,5.73
2023-04-02T11:14:01.996Z,5.76
2023-04-02T11:16:30.943Z,5.88
2023-04-02T11:19:16.991Z,5.81
2023-04-02T11:21:59.994Z,5.81
2023-04-02T11:24:33.010Z,5.82
2023-04-02T11:27:14.497Z,5.67
2023-04-02T11:29:54.481Z,5.79
2023-04-02T11:32:27.239Z,5.88
2023-04-02T11:35:05.135Z,5.80
2023-04-02T11:37:43.896Z,5.98
2023-04-02T11:40:15.498Z,6.04
2023-04-02T11:42:47.261Z,6.03
2023-04-02T11:45:24.640Z,6.05
2023-04-02T11:48:02.314Z,6.12
2023-04-02T11:50:35.272Z,6.25
2023-04-02T11:53:12.691Z,6.32
2023-04-02T11:55:59.791Z,6.53
2023-04-02T11:59:04.086Z,6.64
2023-04-02T12:02:19.282Z,6.75
2023-04-02T12:05:07.533Z,6.73
2023-04-02T12:08:13.246Z,6.87
2023-04-02T12:11:02.642Z,6.93
2023-04-02T12:13:42.939Z,6.88
2023-04-02T12:16:15.596Z,6.78
2023-04-02T12:18:53.670Z,6.73
2023-04-02T12:21:26.519Z,6.75
2023-04-02T12:24:01.945Z,6.72
2023-04-02T12:26:38.504Z,6.70
2023-04-02T12:29:18.628Z,6.66
2023-04-02T12:31:50.500Z,6.66
2023-04-02T12:34:23.536Z,6.52
2023-04-02T12:37:03.929Z,6.55
2023-04-02T12:39:34.552Z,6.47
2023-04-02T12:42:06.156Z,6.55
2023-04-02T12:44:42.897Z,6.59
2023-04-02T12:47:17.196Z,6.56
2023-04-02T12:49:46.318Z,6.75
2023-04-02T12:52:23.017Z,6.67
2023-04-02T12:54:55.391Z,6.87
2023-04-02T12:57:26.666Z,6.98
2023-04-02T12:59:59.973Z,7.03
2023-04-02T13:02:32.782Z,7.06
2023-04-02T13:05:05.561Z,7.09
2023-04-02T13:07:35.232Z,7.17
2023-04-02T13:10:28.901Z,7.24
2023-04-02T13:13:02.936Z,7.38
2023-04-02T13:15:39.623Z,7.49
2023-04-02T13:18:14.032Z,7.53
2023-04-02T13:21:03.337Z,7.51
2023-04-02T13:23:31.810Z,7.52
2023-04-02T13:26:22.754Z,7.46
2023-04-02T13:29:10.313Z,7.51
2023-04-02T13:31:38.937Z,7.44
2023-04-02T13:34:07.677Z,7.48
2023-04-02T13:36:37.422Z,7.36
2023-04-02T13:39:06.099Z,7.20
2023-04-02T13:41:42.823Z,7.34
2023-04-02T13:44:24.415Z,7.36
2023-04-02T13:46:53.645Z,7.38
2023-04-02T13:49:22.863Z,7.51
2023-04-02T13:51:57.935Z,7.58
2023-04-02T13:54:45.668Z,7.67
2023-04-02T13:57:13.975Z,7.66
2023-04-02T13:59:42.143Z,7.61
2023-04-02T14:02:18.189Z,7.67
2023-04-02T14:04:52.595Z,7.65
2023-04-02T14:07:54.001Z,7.74
2023-04-02T14:11:14.018Z,7.81
2023-04-02T14:13:56.413Z,7.65
2023-04-02T14:16:24.995Z,7.62
2023-04-02T14:19:25.274Z,7.68
2023-04-02T14:22:26.647Z,7.54
2023-04-02T14:25:54.461Z,7.53
2023-04-02T14:28:43.352Z,7.40
2023-04-02T14:31:37.815Z,7.43
2023-04-02T14:34:06.308Z,7.44
2023-04-02T14:37:07.084Z,7.48
2023-04-02T14:40:35.797Z,7.35
2023-04-02T14:43:27.916Z,7.59
2023-04-02T14:46:06.295Z,7.52
2023-04-02T14:49:05.265Z,7.52
2023-04-02T14:51:58.889Z,7.69
2023-04-02T14:54:51.418Z,7.70
2023-04-02T14:57:30.950Z,7.79
2023-04-02T15:00:24.231Z,7.81
2023-04-02T15:03:10.100Z,7.84
2023-04-02T15:05:51.786Z,7.80
2023-04-02T15:08:48.399Z,7.75
2023-04-02T15:11:43.684Z,7.61
2023-04-02T15:14:32.681Z,7.59
2023-04-02T15:17:00.872Z,7.63
2023-04-02T15:19:29.374Z,7.59
2023-04-02T15:22:29.812Z,7.57
2023-04-02T15:25:22.194Z,7.64
2023-04-02T15:28:28.887Z,7.57
2023-04-02T15:31:00.754Z,7.56
2023-04-02T15:33:35.555Z,7.54
2023-04-02T15:36:29.672Z,7.44
2023-04-02T15:39:18.861Z,7.59
2023-04-02T15:41:58.927Z,7.53
2023-04-02T15:44:27.240Z,7.57
2023-04-02T15:47:36.800Z,7.50
2023-04-02T15:50:46.537Z,7.53
2023-04-02T15:53:27.115Z,7.43
2023-04-02T15:56:26.356Z,7.36
2023-04-02T15:59:32.306Z,7.35
2023-04-02T16:02:02.418Z,7.26
2023-04-02T16:04:48.913Z,7.36
2023-04-02T16:08:10.020Z,7.38
2023-04-02T16:10:43.019Z,7.38
2023-04-02T16:13:34.242Z,7.40
2023-04-02T16:16:17.355Z,7.38
2023-04-02T16:19:27.557Z,7.29
2023-04-02T16:22:12.636Z,7.17
2023-04-02T16:24:40.765Z,7.11
2023-04-02T16:27:16.229Z,7.10
2023-04-02T16:29:59.904Z,7.03
2023-04-02T16:33:09.378Z,7.02
2023-04-02T16:36:08.126Z,7.00
2023-04-02T16:39:21.123Z,7.11
2023-04-02T16:41:51.855Z,7.09
2023-04-02T16:45:08.045Z,7.08
2023-04-02T16:48:06.962Z,7.10
2023-04-02T16:50:49.504Z,7.10
2023-04-02T16:53:58.380Z,7.06
2023-04-02T16:57:06.094Z,6.96
2023-04-02T16:59:37.379Z,6.96
2023-04-02T17:02:39.850Z,6.97
2023-04-02T17:05:25.953Z,6.94
2023-04-02T17:08:18.046Z,6.86
2023-04-02T17:10:53.623Z,6.87
2023-04-02T17:13:44.847Z,6.82
2023-04-02T17:16:34.014Z,6.78
2023-04-02T17:19:03.459Z,6.84
2023-04-02T17:21:33.556Z,6.81
2023-04-02T17:24:29.482Z,6.79
2023-04-02T17:27:08.080Z,6.76
2023-04-02T17:29:40.697Z,6.72
2023-04-02T17:32:41.096Z,6.76
2023-04-02T17:35:51.691Z,6.71
2023-04-02T17:38:32.489Z,6.74
2023-04-02T17:41:19.326Z,6.74
2023-04-02T17:44:33.607Z,6.71
2023-04-02T17:47:24.861Z,6.73
2023-04-02T17:50:26.579Z,6.75
2023-04-02T17:53:09.854Z,6.68
2023-04-02T17:55:57.288Z,6.73
2023-04-02T17:59:05.578Z,6.68
2023-04-02T18:02:13.677Z,6.69
2023-04-02T18:04:54.684Z,6.70
2023-04-02T18:07:42.419Z,6.67
2023-04-02T18:10:23.145Z,6.64
2023-04-02T18:13:18.750Z,6.64
2023-04-02T18:16:13.793Z,6.66
2023-04-02T18:18:51.040Z,6.67
2023-04-02T18:21:34.591Z,6.68
2023-04-02T18:24:17.427Z,6.69
2023-04-02T18:27:17.518Z,6.68
2023-04-02T18:30:25.171Z,6.71
2023-04-02T18:32:56.666Z,6.76
2023-04-02T18:35:55.744Z,6.72
2023-04-02T18:38:43.107Z,6.71
2023-04-02T18:41:39.577Z,6.72
2023-04-02T18:44:44.885Z,6.74
2023-04-02T18:47:40.840Z,6.75
2023-04-02T18:50:47.451Z,6.70
2023-04-02T18:53:21.034Z,6.62
2023-04-02T18:55:58.441Z,6.64
2023-04-02T18:58:35.944Z,6.65
2023-04-02T19:01:08.144Z,6.71
2023-04-02T19:03:51.138Z,6.70
2023-04-02T19:06:28.631Z,6.72
2023-04-02T19:09:02.820Z,6.73
2023-04-02T19:11:31.923Z,6.69
2023-04-02T19:14:01.416Z,6.60
2023-04-02T19:17:03.809Z,6.65
2023-04-02T19:19:43.332Z,6.48
2023-04-02T19:22:55.141Z,6.57
2023-04-02T19:26:02.756Z,6.55
2023-04-02T19:29:24.722Z,6.49
2023-04-02T19:32:36.817Z,6.45
2023-04-02T19:35:29.313Z,6.36
2023-04-02T19:38:26.915Z,6.42
2023-04-02T19:41:41.432Z,6.27
2023-04-02T19:44:13.378Z,6.19
2023-04-02T19:46:42.236Z,6.12
2023-04-02T19:49:23.941Z,6.18
2023-04-02T19:51:53.671Z,6.17
2023-04-02T19:54:22.509Z,6.12
2023-04-02T19:56:51.449Z,6.09
2023-04-02T19:59:20.026Z,6.13
2023-04-02T20:01:48.831Z,6.03
2023-04-02T20:04:17.386Z,6.02
2023-04-02T20:06:46.058Z,6.06
2023-04-02T20:09:14.545Z,5.93
2023-04-02T20:11:43.037Z,5.99
2023-04-02T20:14:11.700Z,5.92
2023-04-02T20:16:40.218Z,5.90
2023-04-02T20:19:08.798Z,5.90
2023-04-02T20:21:38.529Z,5.87
2023-04-02T20:24:08.689Z,5.84
2023-04-02T20:26:37.667Z,5.82
2023-04-02T20:29:06.488Z,5.79
2023-04-02T20:31:36.912Z,5.84
2023-04-02T20:34:06.851Z,5.79
2023-04-02T20:36:35.525Z,5.77
2023-04-02T20:39:07.155Z,5.71
2023-04-02T20:41:36.065Z,5.52
2023-04-02T20:44:04.629Z,5.48
2023-04-02T20:46:33.184Z,5.52
2023-04-02T20:49:02.388Z,5.52
2023-04-02T20:51:30.954Z,5.42
2023-04-02T20:53:59.879Z,5.49
2023-04-02T20:56:28.425Z,5.45
2023-04-02T20:58:57.069Z,5.37
2023-04-02T21:01:30.485Z,5.41
2023-04-02T21:04:02.265Z,5.45
2023-04-02T21:06:34.165Z,5.37
2023-04-02T21:09:06.319Z,5.37
2023-04-02T21:11:37.522Z,5.30
2023-04-02T21:14:06.094Z,5.37
2023-04-02T21:16:35.061Z,5.33
2023-04-02T21:19:07.149Z,5.31
2023-04-02T21:21:37.143Z,5.28
2023-04-02T21:24:08.564Z,5.25
2023-04-02T21:26:41.284Z,5.23
2023-04-02T21:29:11.673Z,5.14
2023-04-02T21:31:42.230Z,5.18
2023-04-02T21:34:14.878Z,4.94
2023-04-02T21:36:45.918Z,4.96
2023-04-02T21:39:19.972Z,4.93
2023-04-02T21:41:51.173Z,4.92
2023-04-02T21:44:22.287Z,4.79
2023-04-02T21:46:53.702Z,4.79
2023-04-02T21:49:23.511Z,4.78
2023-04-02T21:51:52.653Z,4.90
2023-04-02T21:54:21.364Z,4.79
2023-04-02T21:56:50.729Z,4.75
2023-04-02T21:59:19.832Z,4.80
2023-04-02T22:01:52.353Z,4.79
2023-04-02T22:04:26.598Z,4.74
2023-04-02T22:06:55.483Z,4.59
2023-04-02T22:09:26.623Z,4.59
2023-04-02T22:11:59.177Z,4.65
2023-04-02T22:14:28.540Z,4.55
2023-04-02T22:16:58.774Z,4.58
2023-04-02T22:19:28.251Z,4.53
2023-04-02T22:21:56.978Z,4.42
2023-04-02T22:24:25.802Z,4.37
2023-04-02T22:26:54.620Z,4.23
2023-04-02T22:29:23.761Z,4.12
2023-04-02T22:31:52.399Z,4.15
2023-04-02T22:34:21.117Z,4.10
2023-04-02T22:36:49.625Z,4.11
2023-04-02T22:39:35.549Z,4.15
2023-04-02T22:42:04.325Z,4.11
2023-04-02T22:44:32.821Z,4.06
2023-04-02T22:47:01.329Z,4.08
2023-04-02T22:49:29.829Z,4.01
2023-04-02T22:51:58.347Z,3.97
2023-04-02T22:54:26.807Z,3.97
2023-04-02T22:56:55.380Z,3.95
2023-04-02T22:59:23.965Z,3.88
2023-04-02T23:01:52.632Z,3.83
2023-04-02T23:04:21.295Z,3.80
2023-04-02T23:06:49.805Z,3.69
2023-04-02T23:09:18.322Z,3.76
2023-04-02T23:11:47.118Z,3.75
2023-04-02T23:14:15.653Z,3.76
2023-04-02T23:16:44.451Z,3.67
2023-04-02T23:19:13.234Z,3.77
2023-04-02T23:21:41.798Z,3.68
2023-04-02T23:24:12.261Z,3.67
2023-04-02T23:26:40.943Z,3.57
2023-04-02T23:29:11.595Z,3.54
2023-04-02T23:31:40.310Z,3.58
2023-04-02T23:34:10.454Z,3.57
2023-04-02T23:36:38.936Z,3.60
2023-04-02T23:39:13.955Z,3.60
2023-04-02T23:41:44.058Z,3.47
2023-04-02T23:44:12.956Z,3.44
2023-04-02T23:46:41.586Z,3.50
2023-04-02T23:49:12.603Z,3.56
2023-04-02T23:51:41.471Z,3.47
2023-04-02T23:54:10.112Z,3.48
2023-04-02T23:56:38.747Z,3.45
2023-04-02T23:59:07.548Z,3.47
